createdAt,value
2019-01-18T00:00:53.520Z,0
2019-01-18T00:01:53.269Z,0
2019-01-18T00:02:53.547Z,0
2019-01-18T00:03:53.038Z,0
2019-01-18T00:04:53.564Z,0
2019-01-18T00:05:53.590Z,0
2019-01-18T00:06:53.382Z,0
2019-01-18T00:07:53.614Z,0
2019-01-18T00:08:53.124Z,0
2019-01-18T00:09:53.408Z,0
2019-01-18T00:10:53.671Z,0
2019-01-18T00:11:53.427Z,0
2019-01-18T00:12:53.980Z,0
2019-01-18T00:13:53.728Z,0
2019-01-18T00:14:53.465Z,0
2019-01-18T00:15:53.479Z,0
2019-01-18T00:16:53.549Z,0
2019-01-18T00:17:53.282Z,0
2019-01-18T00:18:53.577Z,0
2019-01-18T00:19:53.547Z,0
2019-01-18T00:20:53.573Z,0
2019-01-18T00:21:53.858Z,0
2019-01-18T00:22:53.619Z,0
2019-01-18T00:23:53.619Z,0
2019-01-18T00:24:53.378Z,0
2019-01-18T00:25:53.391Z,0
2019-01-18T00:26:53.924Z,0
2019-01-18T00:27:53.944Z,0
2019-01-18T00:28:53.971Z,0
2019-01-18T00:29:53.711Z,0
2019-01-18T00:30:53.997Z,0
2019-01-18T00:31:53.751Z,0
2019-01-18T00:32:53.761Z,0
2019-01-18T00:33:53.778Z,0
2019-01-18T00:34:54.077Z,0
2019-01-18T00:35:54.066Z,0
2019-01-18T00:36:53.825Z,0
2019-01-18T00:37:54.105Z,0
2019-01-18T00:38:53.876Z,0
2019-01-18T00:39:53.870Z,0
2019-01-18T00:40:53.909Z,0
2019-01-18T00:41:53.667Z,0
2019-01-18T00:42:54.186Z,0
2019-01-18T00:43:53.739Z,0
2019-01-18T00:44:53.955Z,0
2019-01-18T00:45:53.975Z,0
2019-01-18T00:46:54.250Z,0
2019-01-18T00:47:53.744Z,0
2019-01-18T00:48:53.884Z,0
2019-01-18T00:49:54.296Z,0
2019-01-18T00:50:54.052Z,0
2019-01-18T00:51:54.090Z,0
2019-01-18T00:52:54.098Z,0
2019-01-18T00:53:54.106Z,0
2019-01-18T00:54:53.863Z,0
2019-01-18T00:55:54.451Z,0
2019-01-18T00:56:54.151Z,0
2019-01-18T00:57:54.170Z,0
2019-01-18T00:58:53.937Z,0
2019-01-18T00:59:53.960Z,0
2019-01-18T01:00:54.479Z,0
2019-01-18T01:01:54.493Z,0
2019-01-18T01:02:54.259Z,0
2019-01-18T01:03:54.805Z,0
2019-01-18T01:04:54.299Z,0
2019-01-18T01:05:54.046Z,0
2019-01-18T01:06:54.577Z,0
2019-01-18T01:07:54.347Z,0
2019-01-18T01:08:54.609Z,0
2019-01-18T01:09:54.899Z,0
2019-01-18T01:10:54.398Z,0
2019-01-18T01:11:54.408Z,0
2019-01-18T01:12:54.424Z,0
2019-01-18T01:13:54.684Z,0
2019-01-18T01:14:54.974Z,0
2019-01-18T01:15:54.210Z,0
2019-01-18T01:16:54.743Z,0
2019-01-18T01:17:55.009Z,0
2019-01-18T01:18:54.524Z,0
2019-01-18T01:19:54.544Z,0
2019-01-18T01:20:54.598Z,0
2019-01-18T01:21:54.313Z,0
2019-01-18T01:22:54.333Z,0
2019-01-18T01:23:54.604Z,0
2019-01-18T01:24:54.615Z,0
2019-01-18T01:25:54.629Z,0
2019-01-18T01:26:54.648Z,0
2019-01-18T01:27:54.405Z,0
2019-01-18T01:28:54.951Z,0
2019-01-18T01:29:54.446Z,0
2019-01-18T01:30:54.721Z,0
2019-01-18T01:31:55.244Z,0
2019-01-18T01:32:55.010Z,0
2019-01-18T01:33:54.509Z,0
2019-01-18T01:34:54.516Z,0
2019-01-18T01:35:54.537Z,0
2019-01-18T01:36:54.543Z,0
2019-01-18T01:37:55.088Z,0
2019-01-18T01:38:54.582Z,0
2019-01-18T01:39:55.147Z,0
2019-01-18T01:40:55.063Z,0
2019-01-18T01:41:54.632Z,0
2019-01-18T01:42:54.941Z,0
2019-01-18T01:43:54.665Z,0
2019-01-18T01:44:54.934Z,0
2019-01-18T01:45:54.699Z,0
2019-01-18T01:46:54.964Z,0
2019-01-18T01:47:55.242Z,0
2019-01-18T01:48:54.755Z,0
2019-01-18T01:49:55.296Z,0
2019-01-18T01:50:55.299Z,0
2019-01-18T01:51:54.806Z,0
2019-01-18T01:52:55.077Z,0
2019-01-18T01:53:55.332Z,0
2019-01-18T01:54:55.101Z,0
2019-01-18T01:55:54.853Z,0
2019-01-18T01:56:55.421Z,0
2019-01-18T01:57:54.898Z,0
2019-01-18T01:58:54.918Z,0
2019-01-18T01:59:56.745Z,0
2019-01-18T02:00:54.945Z,0
2019-01-18T02:01:55.480Z,0
2019-01-18T02:02:55.049Z,0
2019-01-18T02:03:55.498Z,0
2019-01-18T02:04:55.269Z,0
2019-01-18T02:05:55.533Z,0
2019-01-18T02:06:55.294Z,0
2019-01-18T02:07:55.307Z,0
2019-01-18T02:08:55.588Z,0
2019-01-18T02:09:55.091Z,0
2019-01-18T02:10:55.367Z,0
2019-01-18T02:11:55.655Z,0
2019-01-18T02:12:55.401Z,0
2019-01-18T02:13:55.417Z,0
2019-01-18T02:14:55.696Z,0
2019-01-18T02:15:55.442Z,0
2019-01-18T02:16:55.452Z,0
2019-01-18T02:17:55.232Z,0
2019-01-18T02:18:55.505Z,0
2019-01-18T02:19:55.769Z,0
2019-01-18T02:20:55.774Z,0
2019-01-18T02:21:55.290Z,0
2019-01-18T02:22:55.570Z,0
2019-01-18T02:23:55.306Z,0
2019-01-18T02:24:55.850Z,0
2019-01-18T02:25:56.115Z,0
2019-01-18T02:26:55.622Z,0
2019-01-18T02:27:55.657Z,0
2019-01-18T02:28:55.930Z,0
2019-01-18T02:30:00.976Z,0
2019-01-18T02:30:55.951Z,0
2019-01-18T02:31:55.971Z,0
2019-01-18T02:32:55.993Z,0
2019-01-18T02:33:55.751Z,0
2019-01-18T02:34:55.487Z,0
2019-01-18T02:35:55.776Z,0
2019-01-18T02:36:56.071Z,0
2019-01-18T02:37:56.346Z,0
2019-01-18T02:38:55.835Z,0
2019-01-18T02:39:55.826Z,0
2019-01-18T02:40:55.861Z,0
2019-01-18T02:41:56.386Z,0
2019-01-18T02:42:56.134Z,0
2019-01-18T02:43:56.447Z,0
2019-01-18T02:44:56.181Z,0
2019-01-18T02:45:56.187Z,0
2019-01-18T02:46:55.943Z,0
2019-01-18T02:47:55.981Z,0
2019-01-18T02:48:55.994Z,0
2019-01-18T02:49:56.261Z,0
2019-01-18T02:50:56.261Z,0
2019-01-18T02:51:56.285Z,0
2019-01-18T02:52:56.037Z,0
2019-01-18T02:53:55.797Z,0
2019-01-18T02:54:56.339Z,0
2019-01-18T02:55:56.104Z,0
2019-01-18T02:56:56.110Z,0
2019-01-18T02:57:56.153Z,0
2019-01-18T02:58:56.133Z,0
2019-01-18T02:59:56.169Z,0
2019-01-18T03:00:56.170Z,0
2019-01-18T03:01:55.935Z,0
2019-01-18T03:02:56.224Z,0
2019-01-18T03:03:56.216Z,0
2019-01-18T03:04:56.508Z,0
2019-01-18T03:05:55.990Z,0
2019-01-18T03:06:56.281Z,0
2019-01-18T03:07:56.557Z,0
2019-01-18T03:08:56.602Z,0
2019-01-18T03:09:56.331Z,0
2019-01-18T03:10:56.635Z,0
2019-01-18T03:11:56.872Z,0
2019-01-18T03:12:56.369Z,0
2019-01-18T03:13:56.113Z,0
2019-01-18T03:14:56.406Z,0
2019-01-18T03:15:56.400Z,0
2019-01-18T03:16:56.418Z,0
2019-01-18T03:17:56.455Z,0
2019-01-18T03:18:56.218Z,0
2019-01-18T03:19:56.734Z,0
2019-01-18T03:20:56.762Z,0
2019-01-18T03:21:56.261Z,0
2019-01-18T03:22:56.826Z,0
2019-01-18T03:23:56.543Z,0
2019-01-18T03:24:56.559Z,0
2019-01-18T03:25:56.571Z,0
2019-01-18T03:26:56.337Z,0
2019-01-18T03:27:56.637Z,0
2019-01-18T03:28:56.884Z,0
2019-01-18T03:29:56.644Z,0
2019-01-18T03:30:56.680Z,0
2019-01-18T03:31:56.674Z,0
2019-01-18T03:32:56.719Z,0
2019-01-18T03:33:56.961Z,0
2019-01-18T03:34:56.455Z,0
2019-01-18T03:35:56.476Z,0
2019-01-18T03:36:56.737Z,0
2019-01-18T03:37:56.769Z,0
2019-01-18T03:38:56.781Z,0
2019-01-18T03:39:57.049Z,0
2019-01-18T03:40:57.085Z,0
2019-01-18T03:41:56.571Z,0
2019-01-18T03:42:57.101Z,0
2019-01-18T03:43:57.118Z,0
2019-01-18T03:44:56.873Z,0
2019-01-18T03:45:56.900Z,0
2019-01-18T03:46:57.185Z,0
2019-01-18T03:47:56.942Z,0
2019-01-18T03:48:56.934Z,0
2019-01-18T03:49:57.212Z,0
2019-01-18T03:50:56.971Z,0
2019-01-18T03:51:57.239Z,0
2019-01-18T03:52:57.049Z,0
2019-01-18T03:53:56.763Z,0
2019-01-18T03:54:57.568Z,0
2019-01-18T03:55:56.810Z,0
2019-01-18T03:56:57.073Z,0
2019-01-18T03:57:57.353Z,0
2019-01-18T03:58:57.122Z,0
2019-01-18T03:59:57.123Z,0
2019-01-18T04:00:56.880Z,0
2019-01-18T04:01:57.149Z,0
2019-01-18T04:02:57.712Z,0
2019-01-18T04:03:57.430Z,0
2019-01-18T04:04:57.458Z,0
2019-01-18T04:05:57.527Z,0
2019-01-18T04:06:57.231Z,0
2019-01-18T04:07:57.514Z,0
2019-01-18T04:08:57.256Z,0
2019-01-18T04:09:57.011Z,0
2019-01-18T04:10:57.560Z,0
2019-01-18T04:11:57.403Z,0
2019-01-18T04:12:57.864Z,0
2019-01-18T04:13:57.600Z,0
2019-01-18T04:14:57.361Z,0
2019-01-18T04:15:57.631Z,0
2019-01-18T04:16:57.120Z,0
2019-01-18T04:17:57.676Z,0
2019-01-18T04:18:57.180Z,0
2019-01-18T04:19:57.744Z,0
2019-01-18T04:20:57.700Z,0
2019-01-18T04:21:57.995Z,0
2019-01-18T04:22:57.468Z,0
2019-01-18T04:23:58.020Z,0
2019-01-18T04:24:57.768Z,0
2019-01-18T04:25:57.776Z,0
2019-01-18T04:26:57.536Z,0
2019-01-18T04:27:57.298Z,0
2019-01-18T04:28:57.572Z,0
2019-01-18T04:29:57.584Z,0
2019-01-18T04:30:57.880Z,0
2019-01-18T04:31:57.884Z,0
2019-01-18T04:32:58.234Z,0
2019-01-18T04:33:57.663Z,0
2019-01-18T04:34:57.678Z,0
2019-01-18T04:35:57.684Z,0
2019-01-18T04:36:57.996Z,0
2019-01-18T04:37:57.717Z,0
2019-01-18T04:38:57.743Z,0
2019-01-18T04:39:58.006Z,0
2019-01-18T04:40:57.517Z,0
2019-01-18T04:41:57.525Z,0
2019-01-18T04:42:57.807Z,0
2019-01-18T04:43:57.816Z,0
2019-01-18T04:44:57.576Z,0
2019-01-18T04:45:58.097Z,0
2019-01-18T04:46:57.765Z,0
2019-01-18T04:47:57.888Z,0
2019-01-18T04:48:57.888Z,0
2019-01-18T04:49:58.169Z,0
2019-01-18T04:50:57.656Z,0
2019-01-18T04:51:58.503Z,0
2019-01-18T04:52:57.968Z,0
2019-01-18T04:53:57.984Z,0
2019-01-18T04:54:58.255Z,0
2019-01-18T04:55:58.280Z,0
2019-01-18T04:56:57.783Z,0
2019-01-18T04:57:57.795Z,0
2019-01-18T04:58:58.300Z,0
2019-01-18T04:59:57.805Z,0
2019-01-18T05:00:58.369Z,0
2019-01-18T05:01:58.091Z,0
2019-01-18T05:02:58.116Z,0
2019-01-18T05:03:58.142Z,0
2019-01-18T05:04:57.880Z,0
2019-01-18T05:05:58.167Z,0
2019-01-18T05:06:58.228Z,0
2019-01-18T05:07:57.926Z,0
2019-01-18T05:08:57.958Z,0
2019-01-18T05:09:58.219Z,0
2019-01-18T05:10:58.495Z,0
2019-01-18T05:11:58.262Z,0
2019-01-18T05:12:58.014Z,0
2019-01-18T05:13:58.567Z,0
2019-01-18T05:14:58.120Z,0
2019-01-18T05:15:58.332Z,0
2019-01-18T05:16:58.334Z,0
2019-01-18T05:17:58.665Z,0
2019-01-18T05:18:58.359Z,0
2019-01-18T05:19:58.417Z,0
2019-01-18T05:20:58.664Z,0
2019-01-18T05:21:58.410Z,0
2019-01-18T05:22:58.679Z,0
2019-01-18T05:23:58.706Z,0
2019-01-18T05:24:58.200Z,0
2019-01-18T05:25:58.736Z,0
2019-01-18T05:26:58.799Z,0
2019-01-18T05:27:58.524Z,0
2019-01-18T05:28:58.772Z,0
2019-01-18T05:29:58.533Z,0
2019-01-18T05:30:58.552Z,0
2019-01-18T05:31:58.837Z,0
2019-01-18T05:32:58.849Z,0
2019-01-18T05:33:58.601Z,0
2019-01-18T05:34:59.151Z,0
2019-01-18T05:35:58.903Z,0
2019-01-18T05:36:58.642Z,0
2019-01-18T05:37:58.920Z,0
2019-01-18T05:38:58.970Z,0
2019-01-18T05:39:58.699Z,0
2019-01-18T05:40:59.229Z,0
2019-01-18T05:41:58.992Z,0
2019-01-18T05:42:58.475Z,0
2019-01-18T05:43:58.779Z,0
2019-01-18T05:44:58.788Z,0
2019-01-18T05:45:58.524Z,0
2019-01-18T05:46:58.558Z,0
2019-01-18T05:47:59.144Z,0
2019-01-18T05:48:59.085Z,0
2019-01-18T05:49:58.600Z,0
2019-01-18T05:50:59.126Z,0
2019-01-18T05:51:58.638Z,0
2019-01-18T05:52:59.162Z,0
2019-01-18T05:53:58.656Z,0
2019-01-18T05:54:58.938Z,0
2019-01-18T05:55:59.214Z,0
2019-01-18T05:56:59.219Z,0
2019-01-18T05:57:58.734Z,0
2019-01-18T05:58:59.262Z,0
2019-01-18T05:59:58.772Z,0
2019-01-18T06:01:02.516Z,0
2019-01-18T06:01:59.300Z,0
2019-01-18T06:02:59.048Z,0
2019-01-18T06:03:58.812Z,0
2019-01-18T06:04:58.826Z,0
2019-01-18T06:05:59.362Z,0
2019-01-18T06:06:59.123Z,0
2019-01-18T06:07:59.145Z,0
2019-01-18T06:08:59.409Z,0
2019-01-18T06:09:59.676Z,0
2019-01-18T06:10:59.191Z,0
2019-01-18T06:11:59.731Z,0
2019-01-18T06:12:59.729Z,0
2019-01-18T06:13:59.478Z,0
2019-01-18T06:14:59.247Z,0
2019-01-18T06:15:59.001Z,0
2019-01-18T06:16:59.276Z,0
2019-01-18T06:17:59.551Z,0
2019-01-18T06:18:59.310Z,0
2019-01-18T06:19:59.326Z,0
2019-01-18T06:20:59.341Z,0
2019-01-18T06:21:59.606Z,0
2019-01-18T06:22:59.108Z,0
2019-01-18T06:23:59.381Z,0
2019-01-18T06:24:59.663Z,0
2019-01-18T06:25:59.930Z,0
2019-01-18T06:26:59.714Z,0
2019-01-18T06:27:59.478Z,0
2019-01-18T06:28:59.467Z,0
2019-01-18T06:29:59.491Z,0
2019-01-18T06:31:06.224Z,0
2019-01-18T06:31:59.761Z,0
2019-01-18T06:32:59.512Z,0
2019-01-18T06:33:59.287Z,0
2019-01-18T06:34:59.820Z,0
2019-01-18T06:35:59.579Z,0
2019-01-18T06:36:59.856Z,0
2019-01-18T06:37:59.346Z,0
2019-01-18T06:38:59.894Z,0
2019-01-18T06:39:59.881Z,0
2019-01-18T06:40:59.936Z,0
2019-01-18T06:41:59.924Z,0
2019-01-18T06:43:00.188Z,0
2019-01-18T06:43:59.954Z,0
2019-01-18T06:44:59.706Z,0
2019-01-18T06:45:59.988Z,0
2019-01-18T06:46:59.541Z,0
2019-01-18T06:47:59.754Z,0
2019-01-18T06:48:59.504Z,0
2019-01-18T06:49:59.791Z,0
2019-01-18T06:50:59.799Z,0
2019-01-18T06:51:59.827Z,0
2019-01-18T06:52:59.581Z,0
2019-01-18T06:53:59.854Z,0
2019-01-18T06:54:59.877Z,0
2019-01-18T06:55:59.614Z,0
2019-01-18T06:57:00.155Z,0
2019-01-18T06:57:59.650Z,0
2019-01-18T06:58:59.928Z,0
2019-01-18T06:59:59.935Z,0
2019-01-18T07:00:59.971Z,4
2019-01-18T07:02:00.239Z,4
2019-01-18T07:02:59.729Z,0
2019-01-18T07:04:01.145Z,0
2019-01-18T07:05:00.283Z,0
2019-01-18T07:06:00.043Z,4
2019-01-18T07:07:00.074Z,4
2019-01-18T07:08:00.088Z,4
2019-01-18T07:09:00.336Z,4
2019-01-18T07:09:59.832Z,4
2019-01-18T07:11:00.371Z,4
2019-01-18T07:11:59.880Z,8
2019-01-18T07:13:00.153Z,8
2019-01-18T07:14:00.424Z,4
2019-01-18T07:15:00.249Z,8
2019-01-18T07:16:00.190Z,8
2019-01-18T07:17:00.472Z,8
2019-01-18T07:18:00.239Z,8
2019-01-18T07:19:00.558Z,12
2019-01-18T07:20:00.262Z,12
2019-01-18T07:21:00.281Z,12
2019-01-18T07:22:00.543Z,12
2019-01-18T07:23:00.298Z,12
2019-01-18T07:24:00.581Z,16
2019-01-18T07:25:00.355Z,16
2019-01-18T07:26:00.366Z,16
2019-01-18T07:27:00.371Z,16
2019-01-18T07:28:00.132Z,20
2019-01-18T07:29:00.146Z,24
2019-01-18T07:30:00.670Z,24
2019-01-18T07:31:00.171Z,28
2019-01-18T07:32:00.456Z,24
2019-01-18T07:33:00.978Z,28
2019-01-18T07:34:00.728Z,24
2019-01-18T07:35:00.494Z,24
2019-01-18T07:36:00.763Z,28
2019-01-18T07:37:00.781Z,28
2019-01-18T07:38:00.537Z,32
2019-01-18T07:39:04.855Z,32
2019-01-18T07:40:00.822Z,36
2019-01-18T07:41:00.320Z,44
2019-01-18T07:42:00.346Z,40
2019-01-18T07:43:01.140Z,44
2019-01-18T07:44:00.639Z,44
2019-01-18T07:45:00.652Z,48
2019-01-18T07:46:00.414Z,48
2019-01-18T07:47:01.210Z,48
2019-01-18T07:48:00.704Z,48
2019-01-18T07:49:00.998Z,52
2019-01-18T07:50:00.717Z,52
2019-01-18T07:51:00.494Z,60
2019-01-18T07:52:01.016Z,68
2019-01-18T07:53:01.038Z,68
2019-01-18T07:54:00.794Z,76
2019-01-18T07:55:00.800Z,72
2019-01-18T07:56:01.097Z,76
2019-01-18T07:57:01.099Z,72
2019-01-18T07:58:01.120Z,68
2019-01-18T07:59:01.123Z,80
2019-01-18T08:00:00.887Z,96
2019-01-18T08:01:01.919Z,116
2019-01-18T08:02:01.193Z,120
2019-01-18T08:03:00.944Z,108
2019-01-18T08:04:01.458Z,96
2019-01-18T08:05:01.213Z,96
2019-01-18T08:06:00.991Z,100
2019-01-18T08:07:01.264Z,104
2019-01-18T08:08:03.085Z,116
2019-01-18T08:09:01.298Z,144
2019-01-18T08:10:01.051Z,124
2019-01-18T08:11:01.325Z,160
2019-01-18T08:12:01.078Z,160
2019-01-18T08:13:01.089Z,152
2019-01-18T08:14:01.109Z,144
2019-01-18T08:15:00.903Z,148
2019-01-18T08:16:00.883Z,144
2019-01-18T08:17:01.149Z,140
2019-01-18T08:18:00.902Z,164
2019-01-18T08:19:01.430Z,168
2019-01-18T08:20:00.941Z,168
2019-01-18T08:21:00.955Z,184
2019-01-18T08:22:01.241Z,204
2019-01-18T08:23:01.298Z,220
2019-01-18T08:24:01.532Z,220
2019-01-18T08:25:01.281Z,228
2019-01-18T08:26:01.562Z,220
2019-01-18T08:27:01.828Z,276
2019-01-18T08:28:01.073Z,244
2019-01-18T08:29:01.344Z,260
2019-01-18T08:30:01.352Z,308
2019-01-18T08:31:01.111Z,320
2019-01-18T08:32:01.654Z,308
2019-01-18T08:33:01.406Z,252
2019-01-18T08:34:02.494Z,204
2019-01-18T08:35:01.956Z,216
2019-01-18T08:36:01.451Z,244
2019-01-18T08:37:01.461Z,268
2019-01-18T08:38:01.484Z,324
2019-01-18T08:39:01.504Z,364
2019-01-18T08:40:01.519Z,380
2019-01-18T08:41:01.275Z,380
2019-01-18T08:42:01.298Z,352
2019-01-18T08:43:01.556Z,336
2019-01-18T08:44:01.595Z,368
2019-01-18T08:45:01.595Z,404
2019-01-18T08:46:01.627Z,392
2019-01-18T08:47:01.874Z,380
2019-01-18T08:48:01.892Z,376
2019-01-18T08:49:01.677Z,380
2019-01-18T08:50:01.694Z,412
2019-01-18T08:51:01.696Z,412
2019-01-18T08:52:01.971Z,412
2019-01-18T08:53:01.983Z,372
2019-01-18T08:54:01.994Z,376
2019-01-18T08:55:01.785Z,404
2019-01-18T08:56:01.766Z,380
2019-01-18T08:57:01.533Z,292
2019-01-18T08:58:01.816Z,296
2019-01-18T08:59:01.811Z,384
2019-01-18T09:00:02.086Z,396
2019-01-18T09:01:01.853Z,384
2019-01-18T09:02:01.879Z,436
2019-01-18T09:03:01.618Z,424
2019-01-18T09:04:01.890Z,520
2019-01-18T09:05:02.164Z,588
2019-01-18T09:06:02.185Z,756
2019-01-18T09:07:02.190Z,984
2019-01-18T09:08:02.358Z,864
2019-01-18T09:09:01.966Z,640
2019-01-18T09:10:02.244Z,628
2019-01-18T09:11:02.000Z,832
2019-01-18T09:12:02.013Z,812
2019-01-18T09:13:02.053Z,728
2019-01-18T09:14:04.526Z,812
2019-01-18T09:15:02.194Z,532
2019-01-18T09:16:02.337Z,776
2019-01-18T09:17:01.844Z,696
2019-01-18T09:18:02.174Z,644
2019-01-18T09:19:02.128Z,800
2019-01-18T09:20:02.158Z,528
2019-01-18T09:21:01.901Z,748
2019-01-18T09:22:01.909Z,764
2019-01-18T09:23:01.939Z,680
2019-01-18T09:24:03.486Z,640
2019-01-18T09:25:02.386Z,520
2019-01-18T09:26:01.980Z,524
2019-01-18T09:27:02.766Z,536
2019-01-18T09:28:02.460Z,696
2019-01-18T09:29:02.804Z,736
2019-01-18T09:30:02.326Z,840
2019-01-18T09:31:02.313Z,620
2019-01-18T09:32:02.621Z,520
2019-01-18T09:33:02.359Z,572
2019-01-18T09:34:02.362Z,828
2019-01-18T09:35:02.384Z,688
2019-01-18T09:36:02.415Z,748
2019-01-18T09:37:02.669Z,552
2019-01-18T09:38:02.443Z,512
2019-01-18T09:39:02.450Z,568
2019-01-18T09:40:02.264Z,820
2019-01-18T09:41:02.759Z,956
2019-01-18T09:42:02.744Z,1020
2019-01-18T09:43:02.571Z,764
2019-01-18T09:44:03.053Z,656
2019-01-18T09:45:02.544Z,1016
2019-01-18T09:46:02.303Z,1424
2019-01-18T09:47:02.832Z,1072
2019-01-18T09:48:03.092Z,900
2019-01-18T09:49:02.351Z,948
2019-01-18T09:50:02.376Z,1164
2019-01-18T09:51:02.390Z,1056
2019-01-18T09:52:02.642Z,768
2019-01-18T09:53:02.929Z,800
2019-01-18T09:54:02.683Z,836
2019-01-18T09:55:02.959Z,956
2019-01-18T09:56:02.708Z,1152
2019-01-18T09:57:02.731Z,1080
2019-01-18T09:58:03.021Z,860
2019-01-18T09:59:02.764Z,840
2019-01-18T10:00:02.773Z,952
2019-01-18T10:01:02.931Z,1120
2019-01-18T10:02:02.802Z,1212
2019-01-18T10:03:02.896Z,940
2019-01-18T10:04:03.101Z,1108
2019-01-18T10:05:02.591Z,1660
2019-01-18T10:06:03.131Z,1756
2019-01-18T10:07:02.897Z,1676
2019-01-18T10:08:03.161Z,1508
2019-01-18T10:09:02.921Z,1272
2019-01-18T10:10:02.945Z,1216
2019-01-18T10:11:02.947Z,1132
2019-01-18T10:12:02.709Z,1572
2019-01-18T10:13:03.251Z,1528
2019-01-18T10:14:03.259Z,1076
2019-01-18T10:15:03.020Z,1048
2019-01-18T10:16:03.306Z,1164
2019-01-18T10:17:03.308Z,1624
2019-01-18T10:18:07.209Z,1396
2019-01-18T10:19:03.085Z,1204
2019-01-18T10:20:03.099Z,904
2019-01-18T10:21:03.362Z,1096
2019-01-18T10:22:03.140Z,1408
2019-01-18T10:23:03.722Z,1296
2019-01-18T10:24:03.425Z,1016
2019-01-18T10:25:03.212Z,1004
2019-01-18T10:26:02.950Z,940
2019-01-18T10:27:03.491Z,1020
2019-01-18T10:28:03.223Z,964
2019-01-18T10:29:03.495Z,932
2019-01-18T10:30:03.256Z,1004
2019-01-18T10:31:03.519Z,932
2019-01-18T10:32:03.831Z,900
2019-01-18T10:33:03.307Z,888
2019-01-18T10:34:03.583Z,904
2019-01-18T10:35:03.080Z,792
2019-01-18T10:36:03.354Z,772
2019-01-18T10:37:03.636Z,876
2019-01-18T10:38:03.632Z,880
2019-01-18T10:39:03.132Z,844
2019-01-18T10:40:03.681Z,836
2019-01-18T10:41:03.430Z,860
2019-01-18T10:42:03.698Z,824
2019-01-18T10:43:03.728Z,828
2019-01-18T10:44:08.172Z,832
2019-01-18T10:45:03.783Z,824
2019-01-18T10:46:03.767Z,824
2019-01-18T10:47:03.783Z,808
2019-01-18T10:48:04.667Z,788
2019-01-18T10:49:03.570Z,752
2019-01-18T10:50:03.822Z,832
2019-01-18T10:51:03.619Z,808
2019-01-18T10:52:03.362Z,768
2019-01-18T10:53:03.619Z,784
2019-01-18T10:54:04.148Z,788
2019-01-18T10:55:03.483Z,780
2019-01-18T10:56:03.934Z,808
2019-01-18T10:57:03.687Z,816
2019-01-18T10:58:03.961Z,804
2019-01-18T10:59:03.466Z,844
2019-01-18T11:00:03.993Z,800
2019-01-18T11:01:03.500Z,908
2019-01-18T11:02:13.847Z,972
2019-01-18T11:03:03.781Z,816
2019-01-18T11:04:04.309Z,768
2019-01-18T11:05:03.850Z,764
2019-01-18T11:06:03.824Z,756
2019-01-18T11:07:03.583Z,748
2019-01-18T11:08:03.858Z,764
2019-01-18T11:09:04.134Z,764
2019-01-18T11:10:04.143Z,756
2019-01-18T11:11:04.162Z,748
2019-01-18T11:12:03.706Z,724
2019-01-18T11:13:03.941Z,708
2019-01-18T11:14:04.482Z,704
2019-01-18T11:15:03.703Z,708
2019-01-18T11:16:03.985Z,696
2019-01-18T11:17:03.996Z,692
2019-01-18T11:18:04.026Z,692
2019-01-18T11:19:04.041Z,700
2019-01-18T11:20:04.319Z,700
2019-01-18T11:21:03.822Z,700
2019-01-18T11:22:04.603Z,704
2019-01-18T11:23:03.844Z,692
2019-01-18T11:24:04.256Z,692
2019-01-18T11:25:04.396Z,696
2019-01-18T11:26:04.146Z,744
2019-01-18T11:27:03.914Z,852
2019-01-18T11:28:04.443Z,720
2019-01-18T11:29:03.944Z,704
2019-01-18T11:30:04.208Z,760
2019-01-18T11:31:04.240Z,704
2019-01-18T11:32:04.237Z,700
2019-01-18T11:33:04.521Z,700
2019-01-18T11:34:04.015Z,708
2019-01-18T11:35:04.028Z,704
2019-01-18T11:36:04.330Z,700
2019-01-18T11:37:04.759Z,704
2019-01-18T11:38:04.366Z,704
2019-01-18T11:39:04.882Z,708
2019-01-18T11:40:04.381Z,712
2019-01-18T11:41:04.385Z,728
2019-01-18T11:42:07.812Z,756
2019-01-18T11:43:04.429Z,720
2019-01-18T11:44:04.437Z,716
2019-01-18T11:45:04.463Z,712
2019-01-18T11:46:04.469Z,720
2019-01-18T11:47:04.225Z,724
2019-01-18T11:48:04.498Z,720
2019-01-18T11:49:04.402Z,712
2019-01-18T11:50:04.535Z,712
2019-01-18T11:51:04.290Z,716
2019-01-18T11:52:04.560Z,708
2019-01-18T11:53:04.590Z,704
2019-01-18T11:54:04.596Z,712
2019-01-18T11:55:04.745Z,708
2019-01-18T11:56:04.902Z,708
2019-01-18T11:57:04.907Z,720
2019-01-18T11:58:05.199Z,724
2019-01-18T11:59:04.932Z,720
2019-01-18T12:00:04.696Z,724
2019-01-18T12:01:04.440Z,724
2019-01-18T12:02:04.995Z,736
2019-01-18T12:03:05.278Z,740
2019-01-18T12:04:04.861Z,740
2019-01-18T12:05:05.036Z,736
2019-01-18T12:06:04.856Z,752
2019-01-18T12:07:04.852Z,752
2019-01-18T12:08:04.569Z,752
2019-01-18T12:09:04.838Z,756
2019-01-18T12:10:04.866Z,772
2019-01-18T12:11:04.861Z,772
2019-01-18T12:12:04.877Z,760
2019-01-18T12:13:04.909Z,764
2019-01-18T12:14:05.181Z,772
2019-01-18T12:15:04.947Z,780
2019-01-18T12:16:04.941Z,784
2019-01-18T12:17:05.228Z,784
2019-01-18T12:18:05.761Z,804
2019-01-18T12:19:05.258Z,804
2019-01-18T12:20:05.262Z,808
2019-01-18T12:21:04.764Z,808
2019-01-18T12:22:05.045Z,812
2019-01-18T12:23:05.315Z,816
2019-01-18T12:24:05.430Z,816
2019-01-18T12:25:05.093Z,824
2019-01-18T12:26:04.847Z,824
2019-01-18T12:27:05.128Z,824
2019-01-18T12:28:04.885Z,836
2019-01-18T12:29:05.040Z,840
2019-01-18T12:30:05.424Z,840
2019-01-18T12:31:05.211Z,828
2019-01-18T12:32:05.202Z,844
2019-01-18T12:33:05.754Z,848
2019-01-18T12:34:05.252Z,852
2019-01-18T12:35:05.773Z,848
2019-01-18T12:36:05.529Z,840
2019-01-18T12:37:05.895Z,840
2019-01-18T12:38:05.044Z,832
2019-01-18T12:39:05.327Z,852
2019-01-18T12:40:05.340Z,848
2019-01-18T12:41:05.102Z,848
2019-01-18T12:42:05.368Z,840
2019-01-18T12:43:05.125Z,808
2019-01-18T12:44:05.397Z,772
2019-01-18T12:45:06.227Z,736
2019-01-18T12:46:05.686Z,716
2019-01-18T12:47:05.450Z,692
2019-01-18T12:48:05.730Z,668
2019-01-18T12:49:05.549Z,636
2019-01-18T12:50:05.768Z,620
2019-01-18T12:51:05.695Z,620
2019-01-18T12:52:05.518Z,616
2019-01-18T12:53:05.552Z,612
2019-01-18T12:54:05.559Z,612
2019-01-18T12:55:05.839Z,624
2019-01-18T12:56:05.595Z,636
2019-01-18T12:57:05.610Z,644
2019-01-18T12:58:05.620Z,684
2019-01-18T12:59:05.388Z,736
2019-01-18T13:00:05.675Z,788
2019-01-18T13:01:06.185Z,832
2019-01-18T13:02:05.434Z,844
2019-01-18T13:03:05.488Z,828
2019-01-18T13:04:08.219Z,860
2019-01-18T13:05:06.007Z,884
2019-01-18T13:06:05.512Z,912
2019-01-18T13:07:05.784Z,916
2019-01-18T13:08:06.042Z,928
2019-01-18T13:09:06.103Z,940
2019-01-18T13:10:11.570Z,940
2019-01-18T13:11:05.833Z,956
2019-01-18T13:12:05.597Z,976
2019-01-18T13:13:05.901Z,988
2019-01-18T13:14:07.774Z,996
2019-01-18T13:15:05.913Z,1016
2019-01-18T13:16:06.184Z,1016
2019-01-18T13:17:06.195Z,1004
2019-01-18T13:18:06.207Z,968
2019-01-18T13:19:06.479Z,908
2019-01-18T13:20:06.228Z,872
2019-01-18T13:21:06.006Z,844
2019-01-18T13:22:05.765Z,792
2019-01-18T13:23:06.282Z,772
2019-01-18T13:24:05.831Z,744
2019-01-18T13:25:06.338Z,708
2019-01-18T13:26:06.086Z,676
2019-01-18T13:27:06.086Z,648
2019-01-18T13:28:06.742Z,620
2019-01-18T13:29:06.122Z,612
2019-01-18T13:30:06.391Z,600
2019-01-18T13:31:06.154Z,584
2019-01-18T13:32:06.701Z,580
2019-01-18T13:33:05.987Z,572
2019-01-18T13:34:10.075Z,572
2019-01-18T13:35:06.490Z,568
2019-01-18T13:36:06.760Z,564
2019-01-18T13:37:06.784Z,552
2019-01-18T13:38:06.264Z,544
2019-01-18T13:39:06.547Z,540
2019-01-18T13:40:10.762Z,532
2019-01-18T13:41:06.590Z,532
2019-01-18T13:42:06.470Z,524
2019-01-18T13:43:06.111Z,520
2019-01-18T13:44:06.674Z,512
2019-01-18T13:45:06.388Z,504
2019-01-18T13:46:06.655Z,500
2019-01-18T13:47:06.157Z,500
2019-01-18T13:48:06.683Z,496
2019-01-18T13:49:06.496Z,488
2019-01-18T13:50:06.460Z,484
2019-01-18T13:51:06.478Z,480
2019-01-18T13:52:06.485Z,476
2019-01-18T13:53:06.757Z,472
2019-01-18T13:54:06.561Z,472
2019-01-18T13:55:06.540Z,468
2019-01-18T13:56:06.301Z,468
2019-01-18T13:57:07.087Z,464
2019-01-18T13:58:06.837Z,464
2019-01-18T13:59:06.389Z,460
2019-01-18T14:00:06.871Z,456
2019-01-18T14:01:06.645Z,456
2019-01-18T14:02:06.903Z,452
2019-01-18T14:03:06.406Z,452
2019-01-18T14:04:06.949Z,452
2019-01-18T14:05:06.716Z,444
2019-01-18T14:06:06.457Z,444
2019-01-18T14:07:06.473Z,456
2019-01-18T14:08:06.492Z,480
2019-01-18T14:09:07.015Z,464
2019-01-18T14:10:08.821Z,436
2019-01-18T14:11:06.791Z,436
2019-01-18T14:12:06.823Z,432
2019-01-18T14:13:06.866Z,428
2019-01-18T14:14:06.861Z,432
2019-01-18T14:15:06.687Z,424
2019-01-18T14:16:06.631Z,424
2019-01-18T14:17:06.638Z,420